createdAt,value
2019-04-25T00:01:01.222Z,99.90
2019-04-25T00:03:32.021Z,99.90
2019-04-25T00:06:02.252Z,99.90
2019-04-25T00:08:31.749Z,99.90
2019-04-25T00:11:01.845Z,99.90
2019-04-25T00:13:31.791Z,99.90
2019-04-25T00:16:01.851Z,99.90
2019-04-25T00:18:31.888Z,99.90
2019-04-25T00:21:06.217Z,99.90
2019-04-25T00:23:36.097Z,99.90
2019-04-25T00:26:11.676Z,99.90
2019-04-25T00:28:43.501Z,99.90
2019-04-25T00:31:11.973Z,99.90
2019-04-25T00:33:43.630Z,99.90
2019-04-25T00:36:12.049Z,99.90
2019-04-25T00:38:42.661Z,99.90
2019-04-25T00:41:11.663Z,99.90
2019-04-25T00:43:42.173Z,99.90
2019-04-25T00:46:11.495Z,99.90
2019-04-25T00:48:42.400Z,99.90
2019-04-25T00:51:11.815Z,99.90
2019-04-25T00:53:42.657Z,99.90
2019-04-25T00:56:12.012Z,99.90
2019-04-25T00:58:47.780Z,99.90
2019-04-25T01:01:35.945Z,99.90
2019-04-25T01:04:05.189Z,99.90
2019-04-25T01:06:34.497Z,99.90
2019-04-25T01:09:05.918Z,99.90
2019-04-25T01:11:34.765Z,99.90
2019-04-25T01:14:03.676Z,99.90
2019-04-25T01:16:32.929Z,99.90
2019-04-25T01:19:03.449Z,99.90
2019-04-25T01:21:33.941Z,99.90
2019-04-25T01:24:04.296Z,99.90
2019-04-25T01:26:33.943Z,99.90
2019-04-25T01:29:03.694Z,99.90
2019-04-25T01:31:33.909Z,99.90
2019-04-25T01:34:04.341Z,99.90
2019-04-25T01:36:55.890Z,99.90
2019-04-25T01:39:38.520Z,99.90
2019-04-25T01:42:20.743Z,99.90
2019-04-25T01:44:50.029Z,99.90
2019-04-25T01:47:20.221Z,99.90
2019-04-25T01:49:49.053Z,99.90
2019-04-25T01:52:18.048Z,99.90
2019-04-25T01:54:47.218Z,99.90
2019-04-25T01:57:16.621Z,99.90
2019-04-25T01:59:46.026Z,99.90
2019-04-25T02:02:20.143Z,99.90
2019-04-25T02:04:49.541Z,99.90
2019-04-25T02:07:18.452Z,99.90
2019-04-25T02:09:47.741Z,99.90
2019-04-25T02:12:23.569Z,99.90
2019-04-25T02:14:54.620Z,99.90
2019-04-25T02:17:24.171Z,99.90
2019-04-25T02:19:54.579Z,99.90
2019-04-25T02:22:24.314Z,99.90
2019-04-25T02:24:55.668Z,99.90
2019-04-25T02:27:24.269Z,99.90
2019-04-25T02:29:55.235Z,99.90
2019-04-25T02:32:24.971Z,99.90
2019-04-25T02:34:58.182Z,99.90
2019-04-25T02:37:25.658Z,99.90
2019-04-25T02:39:57.250Z,99.90
2019-04-25T02:42:25.982Z,99.90
2019-04-25T02:45:08.654Z,99.90
2019-04-25T02:47:56.225Z,99.90
2019-04-25T02:50:36.089Z,99.90
2019-04-25T02:53:26.918Z,99.90
2019-04-25T02:55:56.731Z,99.90
2019-04-25T02:58:26.473Z,99.90
2019-04-25T03:01:08.086Z,99.90
2019-04-25T03:03:27.877Z,99.90
2019-04-25T03:05:57.549Z,99.90
2019-04-25T03:08:27.012Z,99.90
2019-04-25T03:10:58.215Z,99.90
2019-04-25T03:13:26.722Z,99.90
2019-04-25T03:15:55.871Z,99.90
2019-04-25T03:18:26.464Z,99.90
2019-04-25T03:21:17.651Z,99.90
2019-04-25T03:23:48.778Z,99.90
2019-04-25T03:26:17.758Z,99.90
2019-04-25T03:28:46.605Z,99.90
2019-04-25T03:31:22.020Z,99.90
2019-04-25T03:33:46.497Z,99.90
2019-04-25T03:36:16.935Z,99.90
2019-04-25T03:38:46.174Z,99.90
2019-04-25T03:41:15.405Z,99.90
2019-04-25T03:43:44.781Z,99.90
2019-04-25T03:46:14.257Z,99.90
2019-04-25T03:48:44.106Z,99.90
2019-04-25T03:51:15.365Z,99.90
2019-04-25T03:53:44.532Z,99.90
2019-04-25T03:56:14.614Z,99.90
2019-04-25T03:58:44.090Z,99.90
2019-04-25T04:01:13.825Z,99.90
2019-04-25T04:03:43.978Z,99.90
2019-04-25T04:06:15.263Z,99.90
2019-04-25T04:08:44.281Z,99.90
2019-04-25T04:11:15.491Z,99.90
2019-04-25T04:13:44.557Z,99.90
2019-04-25T04:16:15.718Z,99.90
2019-04-25T04:18:46.371Z,99.90
2019-04-25T04:21:33.412Z,99.90
2019-04-25T04:24:25.829Z,99.90
2019-04-25T04:27:09.181Z,99.90
2019-04-25T04:29:39.036Z,99.90
2019-04-25T04:32:08.689Z,99.90
2019-04-25T04:34:37.664Z,99.90
2019-04-25T04:37:07.496Z,99.90
2019-04-25T04:39:36.496Z,99.90
2019-04-25T04:42:05.405Z,99.90
2019-04-25T04:44:34.432Z,99.90
2019-04-25T04:47:04.042Z,99.90
2019-04-25T04:49:34.106Z,99.90
2019-04-25T04:52:04.520Z,99.90
2019-04-25T04:54:34.437Z,99.90
2019-04-25T04:57:16.759Z,99.90
2019-04-25T04:59:34.064Z,99.90
2019-04-25T05:02:15.832Z,99.90
2019-04-25T05:05:06.388Z,99.90
2019-04-25T05:07:47.920Z,99.90
2019-04-25T05:10:18.652Z,99.90
2019-04-25T05:12:47.704Z,99.90
2019-04-25T05:15:17.905Z,99.90
2019-04-25T05:17:47.433Z,99.90
2019-04-25T05:20:17.597Z,99.90
2019-04-25T05:22:47.651Z,99.90
2019-04-25T05:25:17.831Z,99.90
2019-04-25T05:28:00.086Z,99.90
2019-04-25T05:30:26.466Z,99.90
2019-04-25T05:32:54.533Z,99.90
2019-04-25T05:35:24.297Z,99.90
2019-04-25T05:37:54.155Z,99.90
2019-04-25T05:40:24.442Z,99.90
2019-04-25T05:43:03.288Z,99.90
2019-04-25T05:45:34.007Z,99.90
2019-04-25T05:48:04.270Z,99.90
2019-04-25T05:50:34.141Z,99.90
2019-04-25T05:53:04.306Z,99.90
2019-04-25T05:55:34.116Z,99.90
2019-04-25T05:58:03.868Z,99.90
2019-04-25T06:00:34.032Z,99.90
2019-04-25T06:03:03.665Z,99.90
2019-04-25T06:05:34.113Z,99.90
2019-04-25T06:08:04.373Z,99.90
2019-04-25T06:10:53.861Z,99.90
2019-04-25T06:14:00.439Z,99.90
2019-04-25T06:16:39.512Z,99.90
2019-04-25T06:19:20.698Z,99.90
2019-04-25T06:21:50.222Z,99.90
2019-04-25T06:24:34.343Z,99.90
2019-04-25T06:27:25.902Z,99.90
2019-04-25T06:30:24.960Z,99.90
2019-04-25T06:32:55.276Z,99.90
2019-04-25T06:35:25.147Z,99.90
2019-04-25T06:37:55.324Z,99.90
2019-04-25T06:40:25.177Z,99.90
2019-04-25T06:42:55.241Z,99.90
2019-04-25T06:45:36.262Z,99.90
2019-04-25T06:48:24.676Z,99.90
2019-04-25T06:50:53.799Z,99.90
2019-04-25T06:53:24.752Z,99.90
2019-04-25T06:55:54.157Z,99.90
2019-04-25T06:58:25.656Z,99.90
2019-04-25T07:00:58.855Z,99.90
2019-04-25T07:03:25.138Z,99.90
2019-04-25T07:05:55.438Z,99.90
2019-04-25T07:08:25.748Z,99.90
2019-04-25T07:10:55.429Z,99.90
2019-04-25T07:13:25.622Z,99.90
2019-04-25T07:15:54.882Z,99.90
2019-04-25T07:18:29.233Z,99.90
2019-04-25T07:20:54.938Z,99.90
2019-04-25T07:23:25.364Z,99.90
2019-04-25T07:26:01.345Z,99.90
2019-04-25T07:28:44.650Z,99.90
2019-04-25T07:31:29.062Z,99.90
2019-04-25T07:34:14.587Z,99.90
2019-04-25T07:36:43.443Z,99.90
2019-04-25T07:39:13.440Z,99.90
2019-04-25T07:41:44.139Z,99.90
2019-04-25T07:44:14.684Z,99.90
2019-04-25T07:46:43.945Z,99.90
2019-04-25T07:49:13.460Z,99.90
2019-04-25T07:51:43.220Z,99.90
2019-04-25T07:54:14.319Z,99.90
2019-04-25T07:56:43.796Z,99.90
2019-04-25T07:59:13.845Z,99.90
2019-04-25T08:01:43.708Z,99.90
2019-04-25T08:04:13.681Z,99.90
2019-04-25T08:06:44.535Z,98.80
2019-04-25T08:09:14.224Z,99.90
2019-04-25T08:11:44.698Z,97.70
2019-04-25T08:14:25.550Z,91.80
2019-04-25T08:16:56.743Z,94.20
2019-04-25T08:19:26.482Z,93.00
2019-04-25T08:21:57.324Z,92.00
2019-04-25T08:24:27.327Z,89.80
2019-04-25T08:26:57.049Z,85.80
2019-04-25T08:29:26.377Z,87.10
2019-04-25T08:31:55.322Z,88.80
2019-04-25T08:34:24.398Z,82.00
2019-04-25T08:36:54.291Z,84.00
2019-04-25T08:39:24.212Z,82.20
2019-04-25T08:41:53.912Z,78.40
2019-04-25T08:44:24.178Z,80.30
2019-04-25T08:46:53.918Z,79.60
2019-04-25T08:49:33.260Z,84.30
2019-04-25T08:52:04.169Z,82.80
2019-04-25T08:54:57.494Z,88.10
2019-04-25T08:57:45.119Z,90.10
2019-04-25T09:00:25.962Z,89.80
2019-04-25T09:02:59.406Z,90.40
2019-04-25T09:05:42.248Z,90.10
2019-04-25T09:08:12.189Z,84.80
2019-04-25T09:10:41.339Z,92.30
2019-04-25T09:13:10.341Z,87.60
2019-04-25T09:15:39.463Z,89.00
2019-04-25T09:18:08.602Z,89.10
2019-04-25T09:20:39.611Z,82.70
2019-04-25T09:23:08.483Z,78.40
2019-04-25T09:25:38.574Z,79.30
2019-04-25T09:28:07.958Z,78.70
2019-04-25T09:30:37.094Z,84.30
2019-04-25T09:33:06.648Z,77.90
2019-04-25T09:35:36.246Z,82.00
2019-04-25T09:38:05.830Z,79.50
2019-04-25T09:40:35.923Z,76.20
2019-04-25T09:43:05.319Z,77.30
2019-04-25T09:46:08.596Z,70.80
2019-04-25T09:48:59.352Z,78.90
2019-04-25T09:51:40.944Z,73.60
2019-04-25T09:54:33.909Z,72.80
2019-04-25T09:57:21.220Z,72.70
2019-04-25T09:59:50.522Z,74.80
2019-04-25T10:02:19.829Z,73.30
2019-04-25T10:04:49.719Z,73.00
2019-04-25T10:07:19.139Z,70.50
2019-04-25T10:09:48.353Z,72.40
2019-04-25T10:12:17.501Z,75.80
2019-04-25T10:14:59.670Z,71.40
2019-04-25T10:17:29.154Z,71.90
2019-04-25T10:19:58.099Z,68.20
2019-04-25T10:22:28.214Z,68.00
2019-04-25T10:25:00.574Z,67.00
2019-04-25T10:27:28.079Z,68.70
2019-04-25T10:29:57.288Z,69.40
2019-04-25T10:32:26.454Z,69.30
2019-04-25T10:34:55.412Z,67.70
2019-04-25T10:37:24.451Z,67.50
2019-04-25T10:39:55.280Z,72.10
2019-04-25T10:42:24.216Z,70.70
2019-04-25T10:44:56.400Z,72.80
2019-04-25T10:47:23.940Z,70.60
2019-04-25T10:49:55.255Z,69.70
2019-04-25T10:52:24.026Z,68.60
2019-04-25T10:54:54.285Z,66.50
2019-04-25T10:57:26.112Z,67.50
2019-04-25T11:00:05.918Z,67.90
2019-04-25T11:02:25.587Z,66.50
2019-04-25T11:05:00.099Z,68.80
2019-04-25T11:07:29.244Z,69.20
2019-04-25T11:09:58.204Z,68.60
2019-04-25T11:12:27.254Z,65.40
2019-04-25T11:14:56.314Z,70.80
2019-04-25T11:17:25.348Z,72.00
2019-04-25T11:19:55.448Z,69.90
2019-04-25T11:22:25.128Z,70.40
2019-04-25T11:24:55.089Z,68.60
2019-04-25T11:27:24.196Z,67.50
2019-04-25T11:29:58.174Z,69.00
2019-04-25T11:32:26.569Z,69.40
2019-04-25T11:34:55.889Z,68.80
2019-04-25T11:37:26.690Z,69.00
2019-04-25T11:40:07.915Z,64.70
2019-04-25T11:42:36.846Z,66.10
2019-04-25T11:45:07.116Z,67.70
2019-04-25T11:47:36.313Z,63.20
2019-04-25T11:50:07.601Z,66.60
2019-04-25T11:52:36.870Z,64.40
2019-04-25T11:55:06.888Z,68.90
2019-04-25T11:57:35.937Z,66.10
2019-04-25T12:00:05.955Z,67.70
2019-04-25T12:02:34.801Z,67.80
2019-04-25T12:05:04.085Z,65.60
2019-04-25T12:07:34.246Z,69.70
2019-04-25T12:10:03.726Z,70.20
2019-04-25T12:12:34.132Z,71.90
2019-04-25T12:15:04.440Z,70.90
2019-04-25T12:17:35.166Z,72.30
2019-04-25T12:20:04.342Z,70.70
2019-04-25T12:22:34.305Z,71.70
2019-04-25T12:25:04.679Z,74.10
2019-04-25T12:27:33.768Z,72.80
2019-04-25T12:30:05.122Z,72.00
2019-04-25T12:32:35.072Z,75.00
2019-04-25T12:35:06.183Z,74.20
2019-04-25T12:37:35.268Z,74.10
2019-04-25T12:40:06.304Z,73.60
2019-04-25T12:42:35.573Z,71.80
2019-04-25T12:45:14.828Z,73.70
2019-04-25T12:47:46.423Z,72.40
2019-04-25T12:50:18.584Z,74.20
2019-04-25T12:52:46.811Z,73.00
2019-04-25T12:55:16.930Z,73.80
2019-04-25T12:57:45.848Z,73.70
2019-04-25T13:00:18.393Z,75.00
2019-04-25T13:02:47.594Z,77.60
2019-04-25T13:05:16.525Z,74.20
2019-04-25T13:07:45.854Z,73.90
2019-04-25T13:10:15.409Z,74.30
2019-04-25T13:12:45.108Z,74.40
2019-04-25T13:15:14.488Z,74.70
2019-04-25T13:17:43.736Z,75.80
2019-04-25T13:20:13.569Z,72.60
2019-04-25T13:22:43.233Z,75.50
2019-04-25T13:25:14.349Z,75.80
2019-04-25T13:27:53.821Z,74.10
2019-04-25T13:30:40.238Z,72.40
2019-04-25T13:33:26.882Z,76.30
2019-04-25T13:36:02.800Z,74.70
2019-04-25T13:38:31.665Z,75.40
2019-04-25T13:41:01.540Z,73.30
2019-04-25T13:43:30.891Z,75.60
2019-04-25T13:45:59.909Z,75.90
2019-04-25T13:48:29.451Z,75.30
2019-04-25T13:50:58.902Z,75.40
2019-04-25T13:53:28.075Z,75.00
2019-04-25T13:55:56.988Z,76.20
2019-04-25T13:58:26.684Z,75.50
2019-04-25T14:00:56.853Z,74.00
2019-04-25T14:03:27.293Z,74.50
2019-04-25T14:05:56.738Z,75.30
2019-04-25T14:08:26.939Z,78.20
2019-04-25T14:10:56.265Z,79.00
2019-04-25T14:13:26.466Z,78.60
2019-04-25T14:16:03.590Z,80.70
2019-04-25T14:18:55.297Z,83.30
2019-04-25T14:21:25.976Z,82.60
2019-04-25T14:23:55.158Z,81.40
2019-04-25T14:26:25.059Z,82.10
2019-04-25T14:28:54.231Z,81.90
2019-04-25T14:31:41.012Z,83.70
2019-04-25T14:33:55.501Z,85.30
2019-04-25T14:36:26.014Z,85.90
2019-04-25T14:38:55.156Z,86.80
2019-04-25T14:41:24.425Z,89.70
2019-04-25T14:43:53.629Z,89.40
2019-04-25T14:46:22.927Z,91.90
2019-04-25T14:48:51.766Z,92.20
2019-04-25T14:51:20.616Z,91.50
2019-04-25T14:53:49.810Z,94.50
2019-04-25T14:56:26.277Z,94.50
2019-04-25T14:58:55.186Z,96.50
2019-04-25T15:01:24.393Z,95.60
2019-04-25T15:03:53.388Z,95.40
2019-04-25T15:06:22.244Z,95.20
2019-04-25T15:08:51.306Z,95.80
2019-04-25T15:11:20.353Z,96.70
2019-04-25T15:13:49.642Z,95.50
2019-04-25T15:16:19.146Z,99.30
2019-04-25T15:18:48.073Z,96.60
2019-04-25T15:21:18.756Z,97.10
2019-04-25T15:23:59.327Z,96.00
2019-04-25T15:26:18.293Z,99.90
2019-04-25T15:28:47.390Z,97.20
2019-04-25T15:31:16.357Z,96.40
2019-04-25T15:33:46.149Z,96.20
2019-04-25T15:36:30.564Z,96.60
2019-04-25T15:39:18.721Z,97.10
2019-04-25T15:41:55.768Z,95.50
2019-04-25T15:44:52.823Z,94.90
2019-04-25T15:47:26.450Z,96.50
2019-04-25T15:49:55.521Z,96.60
2019-04-25T15:52:26.670Z,97.00
2019-04-25T15:55:06.573Z,96.00
2019-04-25T15:57:27.059Z,97.30
2019-04-25T15:59:57.086Z,98.30
2019-04-25T16:02:26.100Z,99.20
2019-04-25T16:04:54.944Z,99.90
2019-04-25T16:07:24.222Z,99.90
2019-04-25T16:09:53.154Z,97.50
2019-04-25T16:12:22.250Z,98.20
2019-04-25T16:14:51.171Z,96.60
2019-04-25T16:17:20.037Z,97.10
2019-04-25T16:19:49.313Z,95.10
2019-04-25T16:22:18.160Z,94.30
2019-04-25T16:24:47.473Z,92.40
2019-04-25T16:27:16.584Z,92.20
2019-04-25T16:29:45.765Z,90.40
2019-04-25T16:32:20.878Z,90.40
2019-04-25T16:34:49.591Z,83.30
2019-04-25T16:37:18.798Z,84.20
2019-04-25T16:39:47.898Z,90.60
2019-04-25T16:42:16.885Z,86.80
2019-04-25T16:44:46.178Z,87.70
2019-04-25T16:47:16.772Z,90.70
2019-04-25T16:49:45.707Z,88.80
2019-04-25T16:52:17.605Z,88.20
2019-04-25T16:54:45.862Z,87.60
2019-04-25T16:57:14.798Z,88.50
2019-04-25T16:59:43.949Z,87.90
2019-04-25T17:02:16.106Z,87.20
2019-04-25T17:04:45.173Z,80.70
2019-04-25T17:07:15.001Z,80.50
2019-04-25T17:09:44.127Z,81.30
2019-04-25T17:12:13.157Z,81.80
2019-04-25T17:15:10.657Z,80.70
2019-04-25T17:17:50.123Z,78.20
2019-04-25T17:20:42.025Z,81.30
2019-04-25T17:23:11.740Z,83.70
2019-04-25T17:25:40.661Z,82.80
2019-04-25T17:28:10.076Z,82.40
2019-04-25T17:30:40.818Z,82.70
2019-04-25T17:33:20.163Z,84.00
2019-04-25T17:35:57.637Z,85.70
2019-04-25T17:38:42.253Z,86.80
2019-04-25T17:41:11.258Z,88.00
2019-04-25T17:43:40.266Z,89.20
2019-04-25T17:46:11.016Z,90.20
2019-04-25T17:48:40.508Z,90.00
2019-04-25T17:51:09.649Z,90.30
2019-04-25T17:53:39.097Z,90.80
2019-04-25T17:56:08.151Z,91.40
2019-04-25T17:58:37.004Z,93.00
2019-04-25T18:01:06.954Z,92.80
2019-04-25T18:03:35.881Z,93.00
2019-04-25T18:06:04.869Z,93.30
2019-04-25T18:08:34.465Z,94.10
2019-04-25T18:11:04.649Z,95.00
2019-04-25T18:13:34.446Z,95.00
2019-04-25T18:16:12.632Z,96.20
2019-04-25T18:19:03.528Z,96.70
2019-04-25T18:21:32.593Z,98.40
2019-04-25T18:24:36.572Z,98.50
2019-04-25T18:27:27.720Z,98.00
2019-04-25T18:29:56.569Z,98.50
2019-04-25T18:32:27.393Z,99.00
2019-04-25T18:35:07.540Z,99.00
2019-04-25T18:37:53.632Z,99.90
2019-04-25T18:40:31.765Z,99.90
2019-04-25T18:43:13.718Z,99.60
2019-04-25T18:45:45.241Z,99.40
2019-04-25T18:48:14.485Z,98.60
2019-04-25T18:50:44.616Z,98.30
2019-04-25T18:53:41.681Z,98.80
2019-04-25T18:56:25.760Z,98.50
2019-04-25T18:59:20.189Z,99.50
2019-04-25T19:02:15.839Z,99.90
2019-04-25T19:04:55.706Z,99.60
2019-04-25T19:07:24.647Z,99.90
2019-04-25T19:09:53.961Z,99.90
2019-04-25T19:12:22.806Z,99.90
2019-04-25T19:14:51.785Z,99.90
2019-04-25T19:17:20.737Z,99.90
2019-04-25T19:19:49.662Z,99.90
2019-04-25T19:22:18.849Z,99.90
2019-04-25T19:24:48.676Z,99.90
2019-04-25T19:27:23.572Z,99.90
2019-04-25T19:29:49.152Z,99.90
2019-04-25T19:32:18.169Z,99.90
2019-04-25T19:34:47.033Z,99.90
2019-04-25T19:37:16.261Z,99.90
2019-04-25T19:39:50.250Z,99.90
2019-04-25T19:42:24.953Z,99.90
2019-04-25T19:44:53.809Z,99.90
2019-04-25T19:47:22.729Z,99.90
2019-04-25T19:49:51.900Z,99.90
2019-04-25T19:52:20.922Z,99.90
2019-04-25T19:54:49.811Z,99.90
2019-04-25T19:57:19.065Z,99.90
2019-04-25T19:59:48.457Z,99.90
2019-04-25T20:02:27.282Z,98.60
2019-04-25T20:05:06.805Z,99.00
2019-04-25T20:07:45.492Z,99.20
2019-04-25T20:10:36.941Z,99.00
2019-04-25T20:13:05.788Z,98.40
2019-04-25T20:15:34.716Z,98.50
2019-04-25T20:18:03.958Z,99.10
2019-04-25T20:20:32.898Z,97.90
2019-04-25T20:23:01.906Z,98.50
2019-04-25T20:25:31.114Z,99.50
2019-04-25T20:28:00.030Z,99.90
2019-04-25T20:30:29.332Z,99.10
2019-04-25T20:32:58.637Z,99.20
2019-04-25T20:35:27.583Z,99.00
2019-04-25T20:37:56.561Z,99.80
2019-04-25T20:40:25.553Z,99.50
2019-04-25T20:42:54.408Z,99.90
2019-04-25T20:45:50.054Z,99.90
2019-04-25T20:48:19.729Z,99.90
2019-04-25T20:50:48.589Z,99.90
2019-04-25T20:53:17.580Z,99.90
2019-04-25T20:55:47.424Z,99.90
2019-04-25T20:58:16.737Z,99.90
2019-04-25T21:00:49.575Z,99.90
2019-04-25T21:03:18.444Z,99.90
2019-04-25T21:05:49.696Z,99.90
2019-04-25T21:08:19.556Z,99.90
2019-04-25T21:10:50.456Z,99.90
2019-04-25T21:13:26.976Z,99.90
2019-04-25T21:16:15.034Z,99.90
2019-04-25T21:18:55.446Z,99.90
2019-04-25T21:21:24.691Z,99.90
2019-04-25T21:23:53.535Z,99.90
2019-04-25T21:26:22.401Z,99.90
2019-04-25T21:28:52.045Z,99.90
2019-04-25T21:31:21.229Z,99.90
2019-04-25T21:33:50.571Z,99.90
2019-04-25T21:36:20.782Z,99.90
2019-04-25T21:38:49.902Z,99.90
2019-04-25T21:41:41.018Z,99.90
2019-04-25T21:44:10.136Z,99.90
2019-04-25T21:46:39.352Z,99.90
2019-04-25T21:49:08.646Z,99.90
2019-04-25T21:51:37.523Z,99.90
2019-04-25T21:54:06.432Z,99.90
2019-04-25T21:56:35.557Z,99.90
2019-04-25T21:59:04.865Z,99.90
2019-04-25T22:01:36.733Z,99.90
2019-04-25T22:04:06.205Z,99.90
2019-04-25T22:06:35.858Z,99.90
2019-04-25T22:09:09.937Z,99.90
2019-04-25T22:11:39.608Z,99.90
2019-04-25T22:14:09.276Z,99.90
2019-04-25T22:16:38.877Z,99.90
2019-04-25T22:19:09.774Z,99.90
2019-04-25T22:21:39.155Z,99.90
2019-04-25T22:24:11.067Z,99.90
2019-04-25T22:26:38.960Z,99.90
2019-04-25T22:29:08.367Z,99.90
2019-04-25T22:31:44.529Z,99.90
2019-04-25T22:34:18.531Z,99.90
2019-04-25T22:36:47.996Z,99.90
2019-04-25T22:39:16.905Z,99.90
2019-04-25T22:41:47.951Z,99.90
2019-04-25T22:44:18.945Z,99.90
2019-04-25T22:46:48.072Z,99.90
2019-04-25T22:49:17.061Z,99.90
2019-04-25T22:51:46.341Z,99.90
2019-04-25T22:54:15.897Z,99.90
2019-04-25T22:56:45.097Z,99.90
2019-04-25T22:59:14.456Z,99.90
2019-04-25T23:02:05.473Z,99.90
2019-04-25T23:04:42.733Z,99.90
2019-04-25T23:07:12.286Z,99.90
2019-04-25T23:09:41.502Z,99.90
2019-04-25T23:12:11.313Z,99.90
2019-04-25T23:14:40.641Z,99.90
2019-04-25T23:17:09.558Z,99.90
2019-04-25T23:19:38.706Z,99.90
2019-04-25T23:22:07.876Z,99.90
2019-04-25T23:24:39.157Z,99.90
2019-04-25T23:27:26.906Z,99.90
2019-04-25T23:29:55.795Z,99.90
2019-04-25T23:32:24.961Z,99.90
2019-04-25T23:34:53.868Z,99.90
2019-04-25T23:37:23.061Z,99.90
2019-04-25T23:39:52.257Z,99.90
2019-04-25T23:42:21.457Z,99.90
2019-04-25T23:44:50.888Z,99.90
2019-04-25T23:47:20.153Z,99.90
2019-04-25T23:49:49.089Z,99.90
2019-04-25T23:52:18.377Z,99.90
2019-04-25T23:54:47.552Z,99.90
2019-04-25T23:57:17.767Z,99.90
2019-04-25T23:59:47.183Z,99.90
